Time;durP1;ratioP1;P1;durP2;ratioP2;P2;SDS_P1;SDS_P2;PMS_P1;PMS_P2;Temp;Humidity;BMP_temperature;BMP_pressure;BME280_temperature;BME280_humidity;BME280_pressure;Samples;Min_cycle;Max_cycle;Signal;HPM_P1;HPM_P2
2022/03/01 00:01:58;;;;;;;15.55;9.43;;;5.10;71.70;;;;;;5053191;28;20138;-80
2022/03/01 00:04:24;;;;;;;16.70;9.10;;;5.10;72.60;;;;;;5053236;28;20414;-81
2022/03/01 00:06:49;;;;;;;15.73;9.07;;;5.00;71.90;;;;;;5053093;28;20044;-81
2022/03/01 00:09:15;;;;;;;15.98;9.43;;;5.00;72.10;;;;;;5053259;28;20052;-81
2022/03/01 00:11:41;;;;;;;18.30;9.57;;;5.00;72.40;;;;;;5053136;28;20044;-81
2022/03/01 00:14:07;;;;;;;15.75;9.38;;;4.90;72.50;;;;;;5052931;28;20049;-81
2022/03/01 00:16:33;;;;;;;15.95;9.32;;;4.90;72.60;;;;;;5054094;28;20059;-81
2022/03/01 00:18:59;;;;;;;16.80;9.77;;;4.90;72.70;;;;;;5052223;28;20773;-79
2022/03/01 00:21:26;;;;;;;16.75;9.90;;;4.90;72.90;;;;;;5032657;28;20107;-81
2022/03/01 00:23:51;;;;;;;15.45;9.15;;;4.90;73.00;;;;;;5039137;28;20116;-80
2022/03/01 00:26:18;;;;;;;16.20;9.25;;;4.80;73.10;;;;;;5068655;28;20072;-80
2022/03/01 00:28:44;;;;;;;16.35;9.85;;;4.90;73.30;;;;;;5036310;28;20123;-80
2022/03/01 00:31:09;;;;;;;16.10;10.60;;;4.80;73.70;;;;;;5052307;28;20037;-80
2022/03/01 00:33:35;;;;;;;16.30;10.23;;;4.80;73.70;;;;;;5052761;28;20044;-80
2022/03/01 00:36:02;;;;;;;16.70;9.23;;;4.80;73.80;;;;;;5037775;28;20049;-80
2022/03/01 00:38:28;;;;;;;16.48;10.27;;;4.70;74.10;;;;;;5072542;28;20563;-80
2022/03/01 00:40:55;;;;;;;15.57;9.57;;;4.80;74.20;;;;;;5072153;28;20040;-80
2022/03/01 00:43:21;;;;;;;16.15;8.98;;;4.70;74.50;;;;;;5055857;28;20076;-80
2022/03/01 00:45:47;;;;;;;15.88;9.65;;;4.70;74.70;;;;;;5053264;28;20051;-80
2022/03/01 00:48:13;;;;;;;17.63;10.13;;;4.60;75.10;;;;;;5035775;28;20051;-80
2022/03/01 00:50:38;;;;;;;16.85;10.50;;;4.60;75.50;;;;;;5035665;28;20429;-80
2022/03/01 00:53:04;;;;;;;16.10;9.25;;;4.60;75.60;;;;;;5052114;28;20041;-80
2022/03/01 00:55:30;;;;;;;17.45;9.85;;;4.50;75.70;;;;;;5051909;28;20044;-80
2022/03/01 00:57:56;;;;;;;16.52;8.98;;;4.50;76.00;;;;;;5052186;28;20124;-80
2022/03/01 01:00:21;;;;;;;18.48;10.30;;;4.50;76.60;;;;;;5052132;28;20041;-80
2022/03/01 01:02:48;;;;;;;16.45;9.35;;;4.40;76.70;;;;;;5051856;28;20445;-80
2022/03/01 01:05:14;;;;;;;17.05;10.25;;;4.40;76.80;;;;;;5031816;28;20042;-80
2022/03/01 01:07:39;;;;;;;16.45;9.15;;;4.40;76.90;;;;;;5015756;28;20025;-80
2022/03/01 01:10:05;;;;;;;17.98;9.77;;;4.40;76.90;;;;;;5032006;28;20041;-80
2022/03/01 01:12:33;;;;;;;15.60;9.60;;;4.40;77.10;;;;;;5032012;28;20124;-80
2022/03/01 01:14:59;;;;;;;18.63;10.02;;;4.30;77.70;;;;;;5048637;28;20047;-80
2022/03/01 01:17:24;;;;;;;16.35;9.73;;;4.30;77.80;;;;;;5051874;28;20041;-80
2022/03/01 01:19:50;;;;;;;18.30;8.80;;;4.30;78.00;;;;;;5035217;28;20098;-81
2022/03/01 01:25:01;;;;;;;16.00;9.45;;;4.20;78.70;;;;;;5051691;28;20045;-81
2022/03/01 01:27:27;;;;;;;15.43;9.23;;;4.20;79.20;;;;;;5051679;28;20071;-81
2022/03/01 01:29:52;;;;;;;15.90;10.30;;;4.10;79.90;;;;;;5051824;28;20044;-81
2022/03/01 01:32:18;;;;;;;15.45;9.55;;;4.10;80.10;;;;;;5051459;28;20094;-81
2022/03/01 01:34:44;;;;;;;18.08;9.82;;;4.10;80.00;;;;;;5051689;28;20045;-81
2022/03/01 01:37:09;;;;;;;15.98;9.77;;;4.00;80.60;;;;;;5051309;28;20052;-81
2022/03/01 01:39:35;;;;;;;16.33;9.77;;;4.00;80.50;;;;;;5051333;28;20041;-81
2022/03/01 01:42:01;;;;;;;16.60;9.27;;;4.00;80.90;;;;;;5051140;28;20064;-81
2022/03/01 01:44:30;;;;;;;16.98;10.48;;;4.00;80.80;;;;;;5051215;28;20036;-81
2022/03/01 01:46:56;;;;;;;17.60;9.80;;;3.90;81.40;;;;;;5051434;28;20045;-81
2022/03/01 01:49:21;;;;;;;14.75;9.60;;;3.90;81.70;;;;;;5051550;28;20151;-81
2022/03/01 01:51:47;;;;;;;18.40;10.60;;;3.90;82.20;;;;;;5051149;28;20082;-81
2022/03/01 01:54:14;;;;;;;16.83;10.10;;;3.80;83.20;;;;;;5051111;28;20055;-80
2022/03/01 01:56:40;;;;;;;18.20;10.05;;;3.80;83.30;;;;;;5050998;28;20501;-81
2022/03/01 01:59:05;;;;;;;16.38;9.45;;;3.70;84.10;;;;;;5034871;28;20459;-81
2022/03/01 02:01:31;;;;;;;14.77;9.48;;;3.70;84.60;;;;;;5050901;28;20477;-81
2022/03/01 02:03:59;;;;;;;16.90;9.73;;;3.70;85.30;;;;;;5050920;28;20045;-81
2022/03/01 02:06:24;;;;;;;15.65;10.05;;;3.60;85.30;;;;;;5050750;28;20089;-80
2022/03/01 02:08:50;;;;;;;18.42;10.57;;;3.60;85.70;;;;;;5051092;28;20555;-81
2022/03/01 02:11:16;;;;;;;16.45;9.80;;;3.60;85.60;;;;;;5050723;28;20040;-81
2022/03/01 02:13:42;;;;;;;18.55;10.52;;;3.60;85.10;;;;;;5050805;28;20501;-81
2022/03/01 02:16:09;;;;;;;17.05;10.02;;;3.60;85.20;;;;;;5050932;28;20091;-81
2022/03/01 02:18:34;;;;;;;20.05;10.23;;;3.70;85.00;;;;;;5050844;28;20636;-81
2022/03/01 02:21:01;;;;;;;18.65;10.52;;;3.70;85.10;;;;;;5034128;28;20127;-81
2022/03/01 02:23:27;;;;;;;17.85;10.52;;;3.70;85.00;;;;;;5034040;28;20125;-81
2022/03/01 02:25:53;;;;;;;18.55;11.13;;;3.70;84.90;;;;;;5050388;28;20073;-81
2022/03/01 02:28:18;;;;;;;18.25;10.73;;;3.70;85.10;;;;;;5050658;28;20304;-80
2022/03/01 02:30:44;;;;;;;17.95;10.18;;;3.70;85.30;;;;;;5051028;28;20504;-81
2022/03/01 02:33:09;;;;;;;16.10;9.82;;;3.80;85.30;;;;;;5050363;28;20044;-81
2022/03/01 02:35:35;;;;;;;16.95;9.80;;;3.70;85.50;;;;;;5050238;28;20041;-80
2022/03/01 02:38:01;;;;;;;19.92;10.50;;;3.70;85.40;;;;;;5050598;28;20037;-81
2022/03/01 02:40:26;;;;;;;18.55;10.50;;;3.70;85.20;;;;;;5050374;28;20048;-81
2022/03/01 02:42:52;;;;;;;16.08;10.02;;;3.80;85.00;;;;;;5033857;28;20409;-80
2022/03/01 02:45:18;;;;;;;18.30;10.38;;;3.70;85.10;;;;;;5050415;28;20037;-80
2022/03/01 02:47:44;;;;;;;18.05;10.40;;;3.70;85.20;;;;;;5033783;28;20091;-81
2022/03/01 02:50:12;;;;;;;19.58;10.70;;;3.70;85.90;;;;;;5049679;28;20028;-81
2022/03/01 02:52:38;;;;;;;16.63;9.90;;;3.70;86.60;;;;;;5033709;28;20485;-81
2022/03/01 02:55:05;;;;;;;17.60;10.15;;;3.60;87.20;;;;;;5050260;28;20037;-81
2022/03/01 02:57:31;;;;;;;18.08;10.07;;;3.60;87.50;;;;;;5050333;28;20040;-81
2022/03/01 02:59:56;;;;;;;16.95;10.43;;;3.60;87.70;;;;;;5033679;28;20037;-81
2022/03/01 03:02:22;;;;;;;17.75;10.75;;;3.50;88.20;;;;;;5049729;28;20045;-81
2022/03/01 03:04:48;;;;;;;18.20;10.27;;;3.50;88.70;;;;;;5050290;28;20061;-81
2022/03/01 03:07:15;;;;;;;18.90;11.35;;;3.50;89.10;;;;;;5050109;28;20405;-81
2022/03/01 03:09:41;;;;;;;16.77;9.65;;;3.40;89.30;;;;;;5033660;28;20055;-81
2022/03/01 03:12:08;;;;;;;17.98;10.43;;;3.40;89.50;;;;;;5050052;28;20033;-81
2022/03/01 03:14:34;;;;;;;18.17;10.25;;;3.40;89.60;;;;;;5049849;28;20048;-80
2022/03/01 03:17:00;;;;;;;18.33;11.25;;;3.40;90.00;;;;;;5050070;28;20032;-80
2022/03/01 03:19:26;;;;;;;18.40;10.95;;;3.30;90.00;;;;;;5050191;28;20124;-81
2022/03/01 03:21:51;;;;;;;17.60;11.13;;;3.30;90.10;;;;;;5050205;28;20402;-81
2022/03/01 03:24:17;;;;;;;18.45;11.13;;;3.30;90.20;;;;;;5049835;28;20505;-81
2022/03/01 03:26:43;;;;;;;19.52;10.95;;;3.30;90.40;;;;;;5033295;28;20405;-81
2022/03/01 03:29:09;;;;;;;16.63;10.32;;;3.30;90.50;;;;;;5033660;28;20115;-81
2022/03/01 03:31:37;;;;;;;17.45;11.00;;;3.20;90.60;;;;;;5049977;28;20076;-80
2022/03/01 03:34:03;;;;;;;16.38;10.23;;;3.20;90.70;;;;;;5049977;28;20048;-81
2022/03/01 03:36:29;;;;;;;17.13;10.10;;;3.20;90.80;;;;;;5033067;28;20047;-80
2022/03/01 03:38:55;;;;;;;18.38;11.35;;;3.20;91.00;;;;;;5049665;28;20116;-80
2022/03/01 03:41:21;;;;;;;18.88;11.13;;;3.10;90.90;;;;;;5049686;28;20079;-80
2022/03/01 03:43:46;;;;;;;19.17;11.38;;;3.10;91.00;;;;;;5049770;28;20474;-81
2022/03/01 03:46:12;;;;;;;18.35;11.00;;;3.10;91.00;;;;;;5049464;28;20041;-80
2022/03/01 03:48:38;;;;;;;18.85;10.85;;;3.10;91.30;;;;;;5049821;28;20033;-81
2022/03/01 03:51:03;;;;;;;17.00;10.75;;;3.00;91.40;;;;;;5049679;28;20128;-81
2022/03/01 03:53:29;;;;;;;17.35;10.23;;;3.00;91.60;;;;;;5049436;28;20041;-81
2022/03/01 03:55:55;;;;;;;19.02;10.48;;;3.00;91.70;;;;;;5049786;28;20183;-81
2022/03/01 03:58:20;;;;;;;17.85;10.50;;;3.00;91.80;;;;;;5049680;28;20054;-81
2022/03/01 04:00:46;;;;;;;19.70;11.32;;;2.90;92.10;;;;;;5051222;28;20051;-81
2022/03/01 04:03:12;;;;;;;19.42;10.95;;;2.90;92.20;;;;;;5036671;28;20059;-81
2022/03/01 04:05:37;;;;;;;18.17;11.00;;;2.90;92.50;;;;;;5052913;28;20516;-81
2022/03/01 04:08:03;;;;;;;18.85;11.07;;;2.80;92.60;;;;;;5053356;28;20128;-80
2022/03/01 04:10:29;;;;;;;18.98;10.63;;;2.80;92.90;;;;;;5053482;28;20087;-81
2022/03/01 04:12:55;;;;;;;18.77;10.40;;;2.80;93.10;;;;;;5053477;28;20041;-81
2022/03/01 04:15:20;;;;;;;18.90;11.48;;;2.80;93.30;;;;;;5052879;28;20041;-81
2022/03/01 04:17:46;;;;;;;18.63;11.40;;;2.80;93.40;;;;;;5036706;28;20045;-81
2022/03/01 04:20:12;;;;;;;18.13;11.45;;;2.80;93.50;;;;;;5053026;28;20509;-81
2022/03/01 04:22:38;;;;;;;18.65;11.27;;;2.80;93.40;;;;;;5052781;28;20047;-81
2022/03/01 04:25:06;;;;;;;17.33;10.70;;;2.80;93.40;;;;;;5052885;28;20041;-80
2022/03/01 04:27:31;;;;;;;19.35;11.27;;;2.80;93.30;;;;;;5052755;28;20703;-81
2022/03/01 04:29:57;;;;;;;18.48;11.02;;;2.80;93.40;;;;;;5053256;28;20094;-81
2022/03/01 04:32:23;;;;;;;19.98;11.63;;;2.80;93.50;;;;;;5052598;28;20161;-81
2022/03/01 04:34:49;;;;;;;21.50;12.32;;;2.80;93.70;;;;;;5052653;28;20048;-80
2022/03/01 04:37:14;;;;;;;18.58;11.00;;;2.80;93.80;;;;;;5052848;28;20044;-81
2022/03/01 04:39:40;;;;;;;18.38;10.93;;;2.80;94.10;;;;;;5052557;28;20110;-81
2022/03/01 04:42:06;;;;;;;19.80;12.23;;;2.80;93.90;;;;;;5052875;28;20045;-81
2022/03/01 04:44:33;;;;;;;18.10;10.15;;;2.80;94.00;;;;;;5035979;28;20040;-80
2022/03/01 04:46:59;;;;;;;18.05;11.27;;;2.80;93.70;;;;;;5036203;28;20041;-80
2022/03/01 04:49:25;;;;;;;17.02;10.45;;;2.80;93.50;;;;;;5052617;28;20040;-81
2022/03/01 04:51:51;;;;;;;17.58;10.85;;;2.80;93.40;;;;;;5052284;28;20033;-80
2022/03/01 04:54:16;;;;;;;18.65;11.50;;;2.80;93.60;;;;;;5052523;28;20048;-81
2022/03/01 04:56:42;;;;;;;19.33;11.00;;;2.80;94.00;;;;;;5052639;28;20072;-81
2022/03/01 04:59:07;;;;;;;19.60;11.63;;;2.80;94.10;;;;;;5052546;28;20041;-80
2022/03/01 05:01:33;;;;;;;19.92;11.25;;;2.80;94.20;;;;;;5051020;28;20849;-79
2022/03/01 05:03:59;;;;;;;18.98;10.80;;;2.80;94.30;;;;;;5044380;28;20075;-80
2022/03/01 05:06:24;;;;;;;18.90;11.07;;;2.80;94.30;;;;;;5045870;28;20037;-80
2022/03/01 05:08:50;;;;;;;19.90;11.07;;;2.80;94.40;;;;;;5032869;28;20408;-81
2022/03/01 05:11:15;;;;;;;18.52;11.52;;;2.80;94.50;;;;;;5051712;28;20094;-80
2022/03/01 05:13:41;;;;;;;18.23;11.10;;;2.80;94.50;;;;;;5051479;28;20052;-80
2022/03/01 05:16:07;;;;;;;20.25;11.75;;;2.70;94.50;;;;;;5051769;28;20083;-81
2022/03/01 05:18:32;;;;;;;21.08;12.00;;;2.70;94.80;;;;;;5052228;28;20459;-81
2022/03/01 05:20:58;;;;;;;20.00;12.00;;;2.70;94.90;;;;;;5051766;28;20178;-81
2022/03/01 05:23:24;;;;;;;19.05;11.00;;;2.70;95.00;;;;;;5051582;28;20041;-81
2022/03/01 05:25:49;;;;;;;19.23;11.77;;;2.70;95.10;;;;;;5051616;28;20062;-80
2022/03/01 05:28:15;;;;;;;19.13;11.60;;;2.70;95.20;;;;;;5051718;28;20120;-80
2022/03/01 05:30:40;;;;;;;18.92;12.10;;;2.70;95.10;;;;;;5051947;28;20033;-81
2022/03/01 05:33:07;;;;;;;18.45;11.40;;;2.70;95.50;;;;;;5051641;28;20146;-81
2022/03/01 05:35:33;;;;;;;19.23;11.75;;;2.70;95.70;;;;;;5051298;28;20052;-81
2022/03/01 05:37:59;;;;;;;20.95;12.48;;;2.70;95.80;;;;;;5051724;28;20045;-81
2022/03/01 05:40:31;;;;;;;19.98;11.77;;;2.70;95.90;;;;;;5034966;28;20162;-80
2022/03/01 05:42:58;;;;;;;19.73;11.07;;;2.70;96.10;;;;;;5051594;28;20441;-80
2022/03/01 05:45:25;;;;;;;19.30;10.93;;;2.70;96.10;;;;;;5034538;28;20406;-80
2022/03/01 05:47:51;;;;;;;21.25;11.55;;;2.70;96.20;;;;;;5034697;28;20032;-81
2022/03/01 05:50:18;;;;;;;19.27;12.27;;;2.70;96.30;;;;;;5051386;28;20076;-80
2022/03/01 05:52:44;;;;;;;21.55;12.48;;;2.70;96.40;;;;;;5051297;28;20036;-81
2022/03/01 05:55:10;;;;;;;20.55;11.95;;;2.70;96.30;;;;;;5051050;28;20090;-81
2022/03/01 05:57:36;;;;;;;20.02;12.30;;;2.70;96.50;;;;;;5051136;28;20051;-80
2022/03/01 06:00:07;;;;;;;21.33;12.55;;;2.70;96.50;;;;;;5034664;28;20131;-80
2022/03/01 06:02:33;;;;;;;19.77;11.98;;;2.70;96.60;;;;;;5050782;28;20045;-81
2022/03/01 06:04:58;;;;;;;22.08;11.65;;;2.70;96.50;;;;;;5050968;28;20147;-80
2022/03/01 06:07:24;;;;;;;18.75;12.07;;;2.70;96.60;;;;;;5051019;28;20037;-81
2022/03/01 06:09:50;;;;;;;20.65;13.23;;;2.70;96.60;;;;;;5051143;28;20048;-81
2022/03/01 06:12:16;;;;;;;22.90;12.20;;;2.70;96.50;;;;;;5034403;28;20051;-80
2022/03/01 06:14:42;;;;;;;19.20;11.60;;;2.70;96.60;;;;;;5050844;28;20120;-81
2022/03/01 06:17:08;;;;;;;19.00;12.93;;;2.80;96.60;;;;;;5034195;28;20167;-81
2022/03/01 06:19:34;;;;;;;22.08;12.23;;;2.80;96.60;;;;;;5050881;28;20116;-81
2022/03/01 06:22:00;;;;;;;21.52;11.82;;;2.80;96.50;;;;;;5034082;28;20486;-80
2022/03/01 06:24:26;;;;;;;19.70;11.63;;;2.80;96.40;;;;;;5050322;28;20052;-80
2022/03/01 06:26:52;;;;;;;21.77;12.63;;;2.90;96.30;;;;;;5050478;28;20068;-81
2022/03/01 06:29:18;;;;;;;21.77;11.60;;;2.90;96.00;;;;;;5034076;28;20401;-81
2022/03/01 06:31:43;;;;;;;19.40;12.35;;;2.90;96.00;;;;;;5050411;28;20064;-81
2022/03/01 06:34:09;;;;;;;20.38;12.60;;;2.90;96.00;;;;;;5052068;28;20488;-81
2022/03/01 06:36:34;;;;;;;22.08;12.55;;;2.90;96.00;;;;;;5050321;28;20071;-81
2022/03/01 06:39:00;;;;;;;20.65;12.45;;;2.90;96.00;;;;;;5050655;28;20063;-80
2022/03/01 06:41:27;;;;;;;21.83;12.02;;;2.90;95.90;;;;;;5050179;28;20518;-81
2022/03/01 06:43:52;;;;;;;21.27;12.77;;;2.90;96.00;;;;;;5050504;28;20052;-81
2022/03/01 06:46:20;;;;;;;21.20;12.52;;;2.90;95.90;;;;;;5050140;28;20036;-80
2022/03/01 06:48:46;;;;;;;20.02;12.27;;;3.00;95.80;;;;;;5033824;28;20460;-81
2022/03/01 06:51:12;;;;;;;19.08;12.00;;;3.00;95.70;;;;;;5050407;28;20059;-81
2022/03/01 06:53:38;;;;;;;19.58;11.80;;;3.00;95.60;;;;;;5050140;28;20502;-81
2022/03/01 06:56:04;;;;;;;20.98;12.65;;;3.00;95.70;;;;;;5050156;28;20041;-81
2022/03/01 06:58:29;;;;;;;19.45;10.95;;;3.00;95.70;;;;;;5033606;28;20128;-81
2022/03/01 07:00:56;;;;;;;23.88;12.93;;;3.00;95.60;;;;;;5050675;28;20258;-81
2022/03/01 07:03:22;;;;;;;19.73;11.98;;;3.10;95.60;;;;;;5049769;28;20049;-80
2022/03/01 07:05:48;;;;;;;20.48;12.38;;;3.10;95.40;;;;;;5047881;28;20091;-80
2022/03/01 07:08:14;;;;;;;21.35;12.23;;;3.10;95.30;;;;;;5049712;28;20068;-80
2022/03/01 07:10:41;;;;;;;23.55;13.27;;;3.20;95.30;;;;;;5049872;28;20095;-81
2022/03/01 07:13:07;;;;;;;21.70;13.20;;;3.20;95.20;;;;;;5050105;28;20452;-81
2022/03/01 07:15:33;;;;;;;20.63;12.65;;;3.20;95.10;;;;;;5033013;28;20045;-81
2022/03/01 07:18:00;;;;;;;21.02;12.15;;;3.30;95.10;;;;;;5033753;28;20037;-81
2022/03/01 07:20:25;;;;;;;20.48;13.40;;;3.30;95.10;;;;;;5049947;28;20052;-81
2022/03/01 07:22:51;;;;;;;20.98;13.55;;;3.40;95.60;;;;;;5049766;28;20045;-81
2022/03/01 07:25:16;;;;;;;20.65;13.05;;;3.40;95.40;;;;;;5049743;28;20029;-81
2022/03/01 07:27:47;;;;;;;21.27;12.43;;;3.50;95.20;;;;;;5033289;28;20045;-81
2022/03/01 07:30:13;;;;;;;21.65;13.23;;;3.50;95.30;;;;;;5049906;28;20091;-80
2022/03/01 07:32:38;;;;;;;21.88;13.25;;;3.60;95.30;;;;;;5049509;28;20037;-80
2022/03/01 07:35:04;;;;;;;22.52;13.13;;;3.60;95.40;;;;;;5033300;28;20213;-80
2022/03/01 07:37:31;;;;;;;21.52;12.80;;;3.70;95.50;;;;;;5037169;28;20128;-80
2022/03/01 07:39:58;;;;;;;22.88;13.77;;;3.70;95.40;;;;;;5053963;28;20057;-80
2022/03/01 07:42:24;;;;;;;24.17;14.52;;;3.80;95.50;;;;;;5053645;28;20053;-80
2022/03/01 07:44:49;;;;;;;21.75;12.95;;;3.80;95.40;;;;;;5053488;28;20037;-80
2022/03/01 07:47:15;;;;;;;22.60;13.35;;;3.90;95.60;;;;;;5053691;28;20037;-81
2022/03/01 07:49:42;;;;;;;24.63;13.68;;;3.90;95.60;;;;;;5053486;28;20490;-81
2022/03/01 07:52:08;;;;;;;21.42;13.82;;;3.90;95.60;;;;;;5053414;28;20044;-81
2022/03/01 07:54:33;;;;;;;22.15;13.65;;;4.00;95.60;;;;;;5053254;28;20158;-81
2022/03/01 07:56:59;;;;;;;22.33;12.98;;;4.00;95.60;;;;;;5053450;28;20123;-81
2022/03/01 07:59:24;;;;;;;18.60;11.63;;;4.10;95.60;;;;;;5053350;28;20037;-81
2022/03/01 08:01:50;;;;;;;18.35;12.50;;;4.20;95.40;;;;;;5053096;28;20048;-81
2022/03/01 08:04:15;;;;;;;23.25;14.30;;;4.30;95.30;;;;;;5036434;28;20052;-81
2022/03/01 08:06:41;;;;;;;20.27;14.02;;;4.30;95.20;;;;;;5053069;28;20037;-81
2022/03/01 08:09:07;;;;;;;21.67;13.30;;;4.40;95.10;;;;;;5036804;28;20043;-81
2022/03/01 08:11:33;;;;;;;23.38;13.38;;;4.40;95.10;;;;;;5052820;28;20120;-81
2022/03/01 08:13:58;;;;;;;22.02;13.13;;;4.50;94.60;;;;;;5050883;28;20041;-81
2022/03/01 08:16:24;;;;;;;21.77;13.27;;;4.60;94.40;;;;;;5052489;28;20049;-81
2022/03/01 08:18:50;;;;;;;21.13;12.82;;;4.60;94.20;;;;;;5052738;28;20041;-81
2022/03/01 08:21:15;;;;;;;19.92;12.27;;;4.70;94.20;;;;;;5052380;28;20463;-81
2022/03/01 08:23:42;;;;;;;20.45;12.93;;;4.80;94.00;;;;;;5035553;28;20044;-81
2022/03/01 08:26:08;;;;;;;21.02;13.18;;;4.80;94.00;;;;;;5051208;28;20090;-81
2022/03/01 08:28:34;;;;;;;21.30;13.52;;;4.80;94.10;;;;;;5052195;28;20037;-81
2022/03/01 08:30:59;;;;;;;20.45;13.38;;;4.90;94.00;;;;;;5052423;28;20107;-81
2022/03/01 08:33:25;;;;;;;18.45;12.30;;;5.00;93.80;;;;;;5052580;28;20040;-81
2022/03/01 08:35:52;;;;;;;21.10;12.77;;;5.00;93.60;;;;;;5051754;28;20422;-81
2022/03/01 08:38:17;;;;;;;19.75;12.35;;;5.10;93.40;;;;;;5052639;28;20405;-81
2022/03/01 08:40:43;;;;;;;21.50;12.82;;;5.10;93.20;;;;;;5052328;28;20556;-81
2022/03/01 08:43:11;;;;;;;20.58;12.65;;;5.20;93.00;;;;;;5051696;28;20048;-81
2022/03/01 08:45:37;;;;;;;20.63;13.13;;;5.20;92.90;;;;;;5051986;28;20072;-81
2022/03/01 08:48:03;;;;;;;25.65;13.18;;;5.20;92.90;;;;;;5050565;28;20068;-81
2022/03/01 08:50:30;;;;;;;19.85;12.32;;;5.30;93.30;;;;;;5052416;28;20069;-81
2022/03/01 08:52:55;;;;;;;21.13;13.40;;;5.30;93.10;;;;;;5035085;28;20051;-81
2022/03/01 08:55:21;;;;;;;20.23;13.02;;;5.40;92.90;;;;;;5051611;28;20045;-81
2022/03/01 08:57:47;;;;;;;20.02;13.07;;;5.40;92.90;;;;;;5051841;28;20090;-81
2022/03/01 09:00:16;;;;;;;21.92;13.93;;;5.50;92.70;;;;;;5051773;28;20079;-81
2022/03/01 09:02:42;;;;;;;19.83;13.07;;;5.50;92.70;;;;;;5051489;28;20135;-81
2022/03/01 09:05:08;;;;;;;20.80;13.82;;;5.60;92.70;;;;;;5051484;28;20044;-80
2022/03/01 09:07:35;;;;;;;22.05;14.00;;;5.70;92.70;;;;;;5051800;28;20037;-81
2022/03/01 09:10:02;;;;;;;20.33;13.13;;;5.80;92.60;;;;;;5051753;28;20441;-81
2022/03/01 09:12:27;;;;;;;20.17;13.30;;;5.90;92.50;;;;;;5051885;28;20095;-81
2022/03/01 09:14:53;;;;;;;21.63;13.35;;;6.10;92.50;;;;;;5035392;28;20037;-80
2022/03/01 09:17:19;;;;;;;20.13;12.45;;;6.20;92.40;;;;;;5051528;28;20032;-80
2022/03/01 09:19:45;;;;;;;19.55;12.27;;;6.30;91.80;;;;;;5035320;28;20540;-81
2022/03/01 09:22:11;;;;;;;20.02;12.57;;;6.40;91.00;;;;;;5051497;28;20036;-81
2022/03/01 09:24:36;;;;;;;17.25;12.18;;;6.40;90.90;;;;;;5051462;28;20044;-81
2022/03/01 09:27:02;;;;;;;20.58;12.90;;;6.50;90.50;;;;;;5051084;28;20489;-81
2022/03/01 09:29:29;;;;;;;18.98;12.00;;;6.50;90.70;;;;;;5051226;28;20040;-81
2022/03/01 09:31:56;;;;;;;19.98;12.95;;;6.60;90.50;;;;;;5051468;28;20037;-81
2022/03/01 09:34:22;;;;;;;20.52;13.07;;;6.70;90.50;;;;;;5051313;28;20547;-81
2022/03/01 09:36:47;;;;;;;20.45;12.48;;;6.70;90.20;;;;;;5051542;28;20041;-81
2022/03/01 09:39:13;;;;;;;17.92;12.05;;;6.80;90.30;;;;;;5051041;28;20123;-81
2022/03/01 09:41:39;;;;;;;19.40;13.00;;;6.90;90.20;;;;;;5051577;28;20689;-81
2022/03/01 09:44:05;;;;;;;18.88;12.30;;;7.10;90.40;;;;;;5051140;28;20432;-81
2022/03/01 09:46:31;;;;;;;18.00;11.23;;;7.20;89.40;;;;;;5050582;28;20398;-81
2022/03/01 09:48:57;;;;;;;19.30;11.77;;;7.40;88.40;;;;;;5051076;28;20052;-81
2022/03/01 09:51:23;;;;;;;19.75;11.93;;;7.50;88.00;;;;;;5051072;28;20045;-81
2022/03/01 09:53:51;;;;;;;19.33;12.52;;;7.60;85.00;;;;;;5050611;28;20056;-81
2022/03/01 09:56:18;;;;;;;19.58;12.50;;;7.60;84.10;;;;;;5034042;28;20167;-81
2022/03/01 09:58:49;;;;;;;16.70;11.43;;;7.70;82.80;;;;;;5050654;28;20056;-81
2022/03/01 10:01:16;;;;;;;20.08;11.82;;;7.70;81.40;;;;;;5050043;28;20044;-79
2022/03/01 10:03:51;;;;;;;19.98;11.38;;;7.80;80.70;;;;;;5043508;28;20044;-80
2022/03/01 10:06:20;;;;;;;18.90;11.85;;;7.80;80.30;;;;;;5064220;28;20052;-81
2022/03/01 10:08:50;;;;;;;18.48;11.73;;;7.90;79.20;;;;;;5070380;28;20119;-81
2022/03/01 10:11:18;;;;;;;17.02;10.85;;;8.00;79.70;;;;;;5070972;28;20401;-81
2022/03/01 10:13:44;;;;;;;18.25;10.90;;;8.00;78.10;;;;;;5071070;28;20048;-81
2022/03/01 10:16:15;;;;;;;18.23;11.35;;;8.00;77.60;;;;;;5070688;28;20040;-81
2022/03/01 10:18:53;;;;;;;17.42;11.50;;;8.00;77.00;;;;;;5054045;28;20036;-81
2022/03/01 10:21:20;;;;;;;18.88;11.85;;;7.90;78.00;;;;;;5070325;28;20040;-82
2022/03/01 10:23:48;;;;;;;19.58;11.32;;;7.90;77.90;;;;;;5070392;28;20135;-81
2022/03/01 10:26:17;;;;;;;17.98;11.25;;;7.90;77.50;;;;;;5071372;28;20040;-80
2022/03/01 10:28:44;;;;;;;18.92;12.27;;;7.90;77.20;;;;;;5070296;28;20123;-82
2022/03/01 10:31:13;;;;;;;19.05;11.40;;;8.00;77.00;;;;;;5070124;28;20082;-81
2022/03/01 10:33:40;;;;;;;24.80;12.25;;;7.90;76.80;;;;;;5070120;28;20486;-81
2022/03/01 10:36:06;;;;;;;19.52;12.20;;;8.00;77.20;;;;;;5070527;28;20032;-81
2022/03/01 10:38:32;;;;;;;17.02;11.60;;;8.10;76.80;;;;;;5053845;28;20451;-81
2022/03/01 10:40:59;;;;;;;18.85;10.88;;;8.20;76.70;;;;;;5068269;28;20044;-81
2022/03/01 10:43:27;;;;;;;18.35;12.25;;;8.30;75.90;;;;;;5049756;28;20041;-81
2022/03/01 10:45:52;;;;;;;16.65;11.60;;;8.40;76.40;;;;;;5046555;28;20036;-81
2022/03/01 10:48:27;;;;;;;17.95;11.43;;;8.60;76.00;;;;;;5049579;28;20060;-81
2022/03/01 10:51:08;;;;;;;17.40;11.27;;;8.70;75.90;;;;;;5030634;28;20044;-81
2022/03/01 10:53:42;;;;;;;16.95;11.52;;;8.80;74.50;;;;;;5050374;28;20045;-82
2022/03/01 10:56:10;;;;;;;18.05;11.80;;;9.00;74.10;;;;;;5049900;28;20045;-82
2022/03/01 10:58:37;;;;;;;19.23;12.77;;;9.20;74.30;;;;;;5049980;28;20125;-82
2022/03/01 11:01:04;;;;;;;18.80;12.55;;;9.40;73.60;;;;;;5033279;28;20702;-81
2022/03/01 11:03:30;;;;;;;17.95;13.02;;;9.50;72.80;;;;;;5049977;28;20052;-82
2022/03/01 11:05:57;;;;;;;18.00;11.93;;;9.70;72.10;;;;;;5048041;28;20037;-81
2022/03/01 11:08:30;;;;;;;19.10;12.07;;;9.90;71.50;;;;;;5049690;28;20033;-82
2022/03/01 11:10:59;;;;;;;21.00;12.38;;;10.00;72.10;;;;;;5048901;28;20127;-82
2022/03/01 11:13:25;;;;;;;16.33;11.80;;;10.20;70.70;;;;;;5049922;28;20066;-82
2022/03/01 11:16:21;;;;;;;18.13;12.07;;;10.30;69.80;;;;;;5049912;28;20041;-82
2022/03/01 11:19:11;;;;;;;18.20;12.65;;;10.40;68.20;;;;;;5049902;28;20045;-82
2022/03/01 11:21:42;;;;;;;18.42;12.70;;;10.50;68.60;;;;;;5033037;28;20044;-82
2022/03/01 11:24:11;;;;;;;17.38;12.23;;;10.70;67.80;;;;;;5033086;28;20748;-82
2022/03/01 11:26:38;;;;;;;18.13;12.30;;;10.90;67.10;;;;;;5049574;28;20052;-82
2022/03/01 11:29:09;;;;;;;18.45;13.45;;;11.00;66.90;;;;;;5033021;28;20120;-82
2022/03/01 11:31:35;;;;;;;18.15;12.85;;;11.10;65.50;;;;;;5049469;28;20581;-82
2022/03/01 11:34:16;;;;;;;17.23;12.88;;;11.20;66.60;;;;;;5049834;28;20136;-82
2022/03/01 11:36:49;;;;;;;18.33;12.85;;;11.30;65.30;;;;;;5049782;28;20106;-82
2022/03/01 11:39:36;;;;;;;16.38;12.75;;;11.30;65.50;;;;;;5050078;28;20418;-82
2022/03/01 11:42:03;;;;;;;18.40;13.35;;;11.50;66.40;;;;;;5032884;28;20509;-82
2022/03/01 11:44:35;;;;;;;18.55;13.23;;;11.50;65.30;;;;;;5049414;28;20049;-82
2022/03/01 11:47:07;;;;;;;18.65;12.95;;;11.50;64.50;;;;;;5049184;28;20033;-82
2022/03/01 11:49:38;;;;;;;18.38;13.57;;;11.40;65.00;;;;;;5049193;28;20124;-81
2022/03/01 11:52:05;;;;;;;18.25;12.27;;;11.30;64.30;;;;;;5049742;28;20390;-81
2022/03/01 11:54:34;;;;;;;17.55;12.18;;;11.30;63.70;;;;;;5032993;28;20509;-81
2022/03/01 11:57:02;;;;;;;17.75;13.45;;;11.20;63.90;;;;;;5032694;28;20091;-81
2022/03/01 11:59:28;;;;;;;19.35;13.70;;;11.20;65.00;;;;;;5048289;28;20476;-82
2022/03/01 12:01:54;;;;;;;17.10;12.27;;;11.20;64.30;;;;;;5049449;28;20072;-82
2022/03/01 12:04:27;;;;;;;17.85;12.60;;;11.20;64.00;;;;;;5048058;28;20486;-82
2022/03/01 12:06:54;;;;;;;;;;;11.10;62.90;;;;;;5045975;28;20055;-82
2022/03/01 12:09:23;;;;;;;17.00;11.75;;;11.10;63.50;;;;;;5031788;28;20373;-82
2022/03/01 12:11:49;;;;;;;17.13;12.38;;;11.00;63.60;;;;;;5048743;28;20086;-81
2022/03/01 12:14:17;;;;;;;17.23;12.73;;;11.00;63.00;;;;;;5032465;28;20494;-82
2022/03/01 12:16:44;;;;;;;19.05;13.38;;;11.00;62.70;;;;;;5048751;28;20073;-83
2022/03/01 12:19:17;;;;;;;18.25;13.00;;;10.90;62.80;;;;;;5048524;28;20494;-82
2022/03/01 12:21:49;;;;;;;;;;;10.90;62.10;;;;;;5050653;28;20040;-82
2022/03/01 12:24:15;;;;;;;17.80;11.80;;;10.90;63.00;;;;;;5033243;28;20046;-82
2022/03/01 12:26:47;;;;;;;17.13;12.55;;;10.90;63.70;;;;;;5034964;28;20029;-82
2022/03/01 12:29:14;;;;;;;17.27;11.88;;;10.90;62.80;;;;;;5033339;28;20562;-82
2022/03/01 12:31:40;;;;;;;16.95;12.15;;;11.00;62.50;;;;;;5048845;28;20029;-82
2022/03/01 12:34:08;;;;;;;17.38;12.90;;;10.90;62.40;;;;;;5051634;28;20490;-82
2022/03/01 12:36:38;;;;;;;17.13;12.30;;;10.90;62.80;;;;;;5050092;28;20044;-82
2022/03/01 12:39:12;;;;;;;17.35;12.40;;;10.90;62.60;;;;;;5048188;28;20102;-82